sensor_id;sensor_type;location;lat;lon;timestamp;pressure;altitude;pressure_sealevel;temperature;humidity
76216;BME280;65010;50.190;18.930;2024-02-21T00:01:14;99008.72;;;6.40;66.91
76216;BME280;65010;50.190;18.930;2024-02-21T00:04:23;99001.84;;;6.39;67.05
76216;BME280;65010;50.190;18.930;2024-02-21T00:07:29;98991.13;;;6.42;66.83
76216;BME280;65010;50.190;18.930;2024-02-21T00:10:38;98984.09;;;6.33;66.53
76216;BME280;65010;50.190;18.930;2024-02-21T00:13:44;98979.03;;;6.20;66.61
76216;BME280;65010;50.190;18.930;2024-02-21T00:16:51;99000.56;;;6.13;66.63
76216;BME280;65010;50.190;18.930;2024-02-21T00:19:56;99002.34;;;6.12;66.85
76216;BME280;65010;50.190;18.930;2024-02-21T00:23:03;98995.09;;;6.16;67.06
76216;BME280;65010;50.190;18.930;2024-02-21T00:26:12;98998.28;;;6.19;67.05
76216;BME280;65010;50.190;18.930;2024-02-21T00:29:19;98986.88;;;6.20;66.97
76216;BME280;65010;50.190;18.930;2024-02-21T00:32:24;98983.03;;;6.24;66.95
76216;BME280;65010;50.190;18.930;2024-02-21T00:35:31;98974.69;;;6.30;66.94
76216;BME280;65010;50.190;18.930;2024-02-21T00:38:36;98970.44;;;6.29;66.53
76216;BME280;65010;50.190;18.930;2024-02-21T00:41:45;98979.22;;;6.28;66.41
76216;BME280;65010;50.190;18.930;2024-02-21T00:44:52;98975.34;;;6.23;66.49
76216;BME280;65010;50.190;18.930;2024-02-21T00:47:58;98974.69;;;6.30;66.57
76216;BME280;65010;50.190;18.930;2024-02-21T00:51:04;98968.28;;;6.35;66.59
76216;BME280;65010;50.190;18.930;2024-02-21T00:54:11;98970.63;;;6.38;66.29
76216;BME280;65010;50.190;18.930;2024-02-21T00:57:19;98962.53;;;6.41;66.21
76216;BME280;65010;50.190;18.930;2024-02-21T01:00:26;98964.72;;;6.36;65.83
76216;BME280;65010;50.190;18.930;2024-02-21T01:03:32;98959.91;;;6.31;65.92
76216;BME280;65010;50.190;18.930;2024-02-21T01:06:39;98956.25;;;6.22;65.99
76216;BME280;65010;50.190;18.930;2024-02-21T01:09:46;98959.56;;;6.24;65.95
76216;BME280;65010;50.190;18.930;2024-02-21T01:12:56;98959.44;;;6.26;66.17
76216;BME280;65010;50.190;18.930;2024-02-21T01:16:03;98953.38;;;6.25;65.99
76216;BME280;65010;50.190;18.930;2024-02-21T01:19:10;98952.94;;;6.20;65.84
76216;BME280;65010;50.190;18.930;2024-02-21T01:22:16;98956.06;;;6.14;65.97
76216;BME280;65010;50.190;18.930;2024-02-21T01:25:23;98958.09;;;6.10;66.03
76216;BME280;65010;50.190;18.930;2024-02-21T01:28:31;98954.56;;;6.12;66.18
76216;BME280;65010;50.190;18.930;2024-02-21T01:31:37;98949.91;;;6.15;66.14
76216;BME280;65010;50.190;18.930;2024-02-21T01:34:43;98951.16;;;6.21;66.12
76216;BME280;65010;50.190;18.930;2024-02-21T01:37:50;98944.84;;;6.23;66.11
76216;BME280;65010;50.190;18.930;2024-02-21T01:40:56;98947.88;;;6.28;66.09
76216;BME280;65010;50.190;18.930;2024-02-21T01:44:05;98943.72;;;6.37;65.88
76216;BME280;65010;50.190;18.930;2024-02-21T01:47:12;98937.50;;;6.38;65.72
76216;BME280;65010;50.190;18.930;2024-02-21T01:50:22;98934.22;;;6.36;66.05
76216;BME280;65010;50.190;18.930;2024-02-21T01:53:30;98933.97;;;6.39;66.09
76216;BME280;65010;50.190;18.930;2024-02-21T01:56:42;98930.09;;;6.34;65.73
76216;BME280;65010;50.190;18.930;2024-02-21T01:59:51;98926.44;;;6.25;65.86
76216;BME280;65010;50.190;18.930;2024-02-21T02:02:58;98926.16;;;6.18;66.19
76216;BME280;65010;50.190;18.930;2024-02-21T02:06:05;98925.03;;;6.11;66.24
76216;BME280;65010;50.190;18.930;2024-02-21T02:09:12;98928.28;;;6.03;66.38
76216;BME280;65010;50.190;18.930;2024-02-21T02:12:18;98928.66;;;5.99;66.28
76216;BME280;65010;50.190;18.930;2024-02-21T02:15:37;98921.22;;;5.94;66.65
76216;BME280;65010;50.190;18.930;2024-02-21T02:18:44;98926.03;;;5.89;66.76
76216;BME280;65010;50.190;18.930;2024-02-21T02:21:55;98920.94;;;5.87;66.79
76216;BME280;65010;50.190;18.930;2024-02-21T02:25:08;98919.72;;;5.92;66.67
76216;BME280;65010;50.190;18.930;2024-02-21T02:28:15;98915.50;;;6.00;66.65
76216;BME280;65010;50.190;18.930;2024-02-21T02:31:21;98897.56;;;6.07;66.50
76216;BME280;65010;50.190;18.930;2024-02-21T02:34:28;98908.00;;;6.07;66.27
76216;BME280;65010;50.190;18.930;2024-02-21T02:37:34;98906.44;;;6.04;66.09
76216;BME280;65010;50.190;18.930;2024-02-21T02:40:45;98902.19;;;6.03;66.32
76216;BME280;65010;50.190;18.930;2024-02-21T02:43:51;98895.75;;;6.07;66.29
76216;BME280;65010;50.190;18.930;2024-02-21T02:46:57;98901.38;;;6.13;66.27
76216;BME280;65010;50.190;18.930;2024-02-21T02:50:04;98900.44;;;6.14;66.14
76216;BME280;65010;50.190;18.930;2024-02-21T02:53:11;98888.88;;;6.06;66.13
76216;BME280;65010;50.190;18.930;2024-02-21T02:56:20;98894.63;;;6.00;66.39
76216;BME280;65010;50.190;18.930;2024-02-21T02:59:26;98880.59;;;5.92;66.67
76216;BME280;65010;50.190;18.930;2024-02-21T03:02:32;98893.34;;;5.95;66.49
76216;BME280;65010;50.190;18.930;2024-02-21T03:05:39;98893.78;;;6.00;66.55
76216;BME280;65010;50.190;18.930;2024-02-21T03:08:45;98890.38;;;5.99;66.42
76216;BME280;65010;50.190;18.930;2024-02-21T03:11:54;98873.44;;;5.94;66.32
76216;BME280;65010;50.190;18.930;2024-02-21T03:15:06;98889.41;;;6.00;66.13
76216;BME280;65010;50.190;18.930;2024-02-21T03:18:13;98885.41;;;5.96;66.59
76216;BME280;65010;50.190;18.930;2024-02-21T03:21:19;98877.84;;;5.93;67.14
76216;BME280;65010;50.190;18.930;2024-02-21T03:24:25;98872.06;;;5.89;67.37
76216;BME280;65010;50.190;18.930;2024-02-21T03:27:35;98869.88;;;5.95;67.59
76216;BME280;65010;50.190;18.930;2024-02-21T03:30:41;98864.66;;;5.95;67.55
76216;BME280;65010;50.190;18.930;2024-02-21T03:33:47;98870.84;;;5.94;67.22
76216;BME280;65010;50.190;18.930;2024-02-21T03:36:54;98867.09;;;5.86;67.57
76216;BME280;65010;50.190;18.930;2024-02-21T03:39:59;98865.44;;;5.85;67.58
76216;BME280;65010;50.190;18.930;2024-02-21T03:43:09;98866.66;;;5.81;67.59
76216;BME280;65010;50.190;18.930;2024-02-21T03:46:14;98858.84;;;5.81;67.63
76216;BME280;65010;50.190;18.930;2024-02-21T03:49:21;98875.78;;;5.87;67.92
76216;BME280;65010;50.190;18.930;2024-02-21T03:52:27;98874.66;;;5.89;68.00
76216;BME280;65010;50.190;18.930;2024-02-21T03:55:34;98866.56;;;5.93;68.01
76216;BME280;65010;50.190;18.930;2024-02-21T03:58:42;98869.34;;;6.01;68.11
76216;BME280;65010;50.190;18.930;2024-02-21T04:01:52;98856.75;;;6.06;68.15
76216;BME280;65010;50.190;18.930;2024-02-21T04:04:58;98857.88;;;6.23;68.28
76216;BME280;65010;50.190;18.930;2024-02-21T04:08:05;98871.25;;;6.29;67.90
76216;BME280;65010;50.190;18.930;2024-02-21T04:11:11;98862.84;;;6.26;67.57
76216;BME280;65010;50.190;18.930;2024-02-21T04:14:21;98866.03;;;6.29;67.23
76216;BME280;65010;50.190;18.930;2024-02-21T04:17:26;98864.34;;;6.28;66.93
76216;BME280;65010;50.190;18.930;2024-02-21T04:20:34;98855.56;;;6.29;66.89
76216;BME280;65010;50.190;18.930;2024-02-21T04:23:40;98856.31;;;6.32;66.80
76216;BME280;65010;50.190;18.930;2024-02-21T04:26:46;98849.16;;;6.34;66.86
76216;BME280;65010;50.190;18.930;2024-02-21T04:29:55;98856.72;;;6.37;66.54
76216;BME280;65010;50.190;18.930;2024-02-21T04:33:03;98857.00;;;6.34;66.56
76216;BME280;65010;50.190;18.930;2024-02-21T04:36:09;98859.47;;;6.35;66.80
76216;BME280;65010;50.190;18.930;2024-02-21T04:39:15;98849.56;;;6.39;66.68
76216;BME280;65010;50.190;18.930;2024-02-21T04:42:21;98858.25;;;6.49;66.71
76216;BME280;65010;50.190;18.930;2024-02-21T04:45:30;98858.25;;;6.59;66.59
76216;BME280;65010;50.190;18.930;2024-02-21T04:48:36;98854.41;;;6.63;66.58
76216;BME280;65010;50.190;18.930;2024-02-21T04:51:42;98850.16;;;6.62;65.99
76216;BME280;65010;50.190;18.930;2024-02-21T04:54:48;98849.47;;;6.60;65.89
76216;BME280;65010;50.190;18.930;2024-02-21T04:57:55;98840.94;;;6.58;65.70
76216;BME280;65010;50.190;18.930;2024-02-21T05:01:03;98844.09;;;6.52;65.62
76216;BME280;65010;50.190;18.930;2024-02-21T05:04:11;98837.09;;;6.52;65.89
76216;BME280;65010;50.190;18.930;2024-02-21T05:07:17;98818.09;;;6.40;65.52
76216;BME280;65010;50.190;18.930;2024-02-21T05:10:23;98819.34;;;6.36;65.23
76216;BME280;65010;50.190;18.930;2024-02-21T05:13:29;98819.75;;;6.32;65.80
76216;BME280;65010;50.190;18.930;2024-02-21T05:16:41;98817.91;;;6.22;65.53
76216;BME280;65010;50.190;18.930;2024-02-21T05:19:47;98820.50;;;6.13;65.49
76216;BME280;65010;50.190;18.930;2024-02-21T05:22:53;98817.47;;;6.07;65.80
76216;BME280;65010;50.190;18.930;2024-02-21T05:25:59;98824.97;;;6.01;65.73
76216;BME280;65010;50.190;18.930;2024-02-21T05:29:06;98814.97;;;5.96;65.61
76216;BME280;65010;50.190;18.930;2024-02-21T05:32:14;98817.44;;;5.98;65.82
76216;BME280;65010;50.190;18.930;2024-02-21T05:35:25;98814.13;;;5.96;65.54
76216;BME280;65010;50.190;18.930;2024-02-21T05:38:32;98821.84;;;5.97;65.77
76216;BME280;65010;50.190;18.930;2024-02-21T05:41:38;98818.38;;;5.97;65.81
76216;BME280;65010;50.190;18.930;2024-02-21T05:44:44;98813.44;;;5.94;65.73
76216;BME280;65010;50.190;18.930;2024-02-21T05:47:53;98817.97;;;5.92;66.08
76216;BME280;65010;50.190;18.930;2024-02-21T05:51:02;98817.56;;;5.96;66.03
76216;BME280;65010;50.190;18.930;2024-02-21T05:54:09;98816.06;;;5.94;66.05
76216;BME280;65010;50.190;18.930;2024-02-21T05:57:14;98818.91;;;5.90;66.05
76216;BME280;65010;50.190;18.930;2024-02-21T06:00:23;98821.09;;;5.85;66.32
76216;BME280;65010;50.190;18.930;2024-02-21T06:03:31;98817.81;;;5.83;66.44
76216;BME280;65010;50.190;18.930;2024-02-21T06:06:39;98826.16;;;5.77;66.41
76216;BME280;65010;50.190;18.930;2024-02-21T06:09:45;98817.50;;;5.77;66.60
76216;BME280;65010;50.190;18.930;2024-02-21T06:12:51;98806.22;;;5.76;66.67
76216;BME280;65010;50.190;18.930;2024-02-21T06:15:57;98811.63;;;5.84;66.71
76216;BME280;65010;50.190;18.930;2024-02-21T06:19:06;98814.09;;;5.86;66.50
76216;BME280;65010;50.190;18.930;2024-02-21T06:22:12;98822.63;;;5.88;66.60
76216;BME280;65010;50.190;18.930;2024-02-21T06:25:19;98825.41;;;5.96;66.54
76216;BME280;65010;50.190;18.930;2024-02-21T06:28:24;98822.53;;;5.99;66.31
76216;BME280;65010;50.190;18.930;2024-02-21T06:31:31;98818.81;;;6.02;66.25
76216;BME280;65010;50.190;18.930;2024-02-21T06:34:40;98816.50;;;6.08;66.39
76216;BME280;65010;50.190;18.930;2024-02-21T06:37:47;98815.16;;;6.14;66.22
76216;BME280;65010;50.190;18.930;2024-02-21T06:40:54;98810.63;;;6.16;66.02
76216;BME280;65010;50.190;18.930;2024-02-21T06:44:02;98815.16;;;6.14;66.06
76216;BME280;65010;50.190;18.930;2024-02-21T06:47:08;98805.69;;;6.13;65.92
76216;BME280;65010;50.190;18.930;2024-02-21T06:50:18;98805.41;;;6.16;65.97
76216;BME280;65010;50.190;18.930;2024-02-21T06:53:24;98806.50;;;6.14;65.54
76216;BME280;65010;50.190;18.930;2024-02-21T06:56:33;98812.81;;;6.11;65.88
76216;BME280;65010;50.190;18.930;2024-02-21T06:59:39;98805.38;;;6.06;65.82
76216;BME280;65010;50.190;18.930;2024-02-21T07:02:45;98813.34;;;6.05;66.06
76216;BME280;65010;50.190;18.930;2024-02-21T07:05:54;98814.03;;;6.07;66.10
76216;BME280;65010;50.190;18.930;2024-02-21T07:09:01;98815.69;;;6.08;66.07
76216;BME280;65010;50.190;18.930;2024-02-21T07:12:06;98820.78;;;6.09;66.12
76216;BME280;65010;50.190;18.930;2024-02-21T07:15:13;98817.88;;;6.13;66.05
76216;BME280;65010;50.190;18.930;2024-02-21T07:18:20;98818.03;;;6.21;65.89
76216;BME280;65010;50.190;18.930;2024-02-21T07:21:31;98810.50;;;6.27;65.91
76216;BME280;65010;50.190;18.930;2024-02-21T07:24:36;98808.91;;;6.36;65.66
76216;BME280;65010;50.190;18.930;2024-02-21T07:27:44;98811.38;;;6.38;65.49
76216;BME280;65010;50.190;18.930;2024-02-21T07:30:50;98806.03;;;6.39;65.12
76216;BME280;65010;50.190;18.930;2024-02-21T07:33:57;98809.88;;;6.35;65.46
76216;BME280;65010;50.190;18.930;2024-02-21T07:37:06;98791.84;;;6.32;65.30
76216;BME280;65010;50.190;18.930;2024-02-21T07:40:13;98795.59;;;6.39;65.73
76216;BME280;65010;50.190;18.930;2024-02-21T07:43:19;98788.28;;;6.43;65.72
76216;BME280;65010;50.190;18.930;2024-02-21T07:46:26;98784.16;;;6.40;65.49
76216;BME280;65010;50.190;18.930;2024-02-21T07:49:31;98783.91;;;6.43;65.67
76216;BME280;65010;50.190;18.930;2024-02-21T07:52:41;98779.38;;;6.45;65.48
76216;BME280;65010;50.190;18.930;2024-02-21T07:55:46;98787.91;;;6.47;65.33
76216;BME280;65010;50.190;18.930;2024-02-21T07:58:53;98786.25;;;6.76;65.85
76216;BME280;65010;50.190;18.930;2024-02-21T08:01:59;98782.22;;;7.01;65.00
76216;BME280;65010;50.190;18.930;2024-02-21T08:05:10;98769.78;;;7.32;64.42
76216;BME280;65010;50.190;18.930;2024-02-21T08:08:19;98766.75;;;7.64;63.89
76216;BME280;65010;50.190;18.930;2024-02-21T08:11:26;98759.69;;;8.02;63.40
76216;BME280;65010;50.190;18.930;2024-02-21T08:14:31;98754.41;;;8.30;61.66
76216;BME280;65010;50.190;18.930;2024-02-21T08:17:38;98759.28;;;8.61;61.23
76216;BME280;65010;50.190;18.930;2024-02-21T08:20:44;98752.13;;;8.89;60.15
76216;BME280;65010;50.190;18.930;2024-02-21T08:23:53;98746.91;;;9.15;59.21
76216;BME280;65010;50.190;18.930;2024-02-21T08:27:00;98739.66;;;9.43;58.73
76216;BME280;65010;50.190;18.930;2024-02-21T08:30:07;98734.03;;;9.73;57.93
76216;BME280;65010;50.190;18.930;2024-02-21T08:33:15;98751.34;;;9.83;56.71
76216;BME280;65010;50.190;18.930;2024-02-21T08:36:23;98739.38;;;9.89;56.34
76216;BME280;65010;50.190;18.930;2024-02-21T08:39:32;98740.38;;;9.88;56.30
76216;BME280;65010;50.190;18.930;2024-02-21T08:42:39;98735.44;;;9.93;56.61
76216;BME280;65010;50.190;18.930;2024-02-21T08:45:45;98746.47;;;10.05;57.34
76216;BME280;65010;50.190;18.930;2024-02-21T08:48:52;98734.34;;;10.12;56.47
76216;BME280;65010;50.190;18.930;2024-02-21T08:51:58;98726.78;;;10.17;56.43
76216;BME280;65010;50.190;18.930;2024-02-21T08:55:08;98720.09;;;10.31;55.34
76216;BME280;65010;50.190;18.930;2024-02-21T08:58:14;98718.78;;;10.43;55.62
76216;BME280;65010;50.190;18.930;2024-02-21T09:01:24;98716.81;;;10.70;54.76
76216;BME280;65010;50.190;18.930;2024-02-21T09:04:30;98713.16;;;10.96;53.65
76216;BME280;65010;50.190;18.930;2024-02-21T09:07:37;98706.50;;;11.41;53.24
76216;BME280;65010;50.190;18.930;2024-02-21T09:10:45;98700.13;;;11.98;51.61
76216;BME280;65010;50.190;18.930;2024-02-21T09:13:52;98710.22;;;12.40;50.34
76216;BME280;65010;50.190;18.930;2024-02-21T09:16:58;98706.56;;;12.87;49.86
76216;BME280;65010;50.190;18.930;2024-02-21T09:20:06;98707.16;;;13.27;47.88
76216;BME280;65010;50.190;18.930;2024-02-21T09:23:14;98711.13;;;13.53;47.11
76216;BME280;65010;50.190;18.930;2024-02-21T09:26:25;98709.56;;;13.59;45.86
76216;BME280;65010;50.190;18.930;2024-02-21T09:29:31;98708.13;;;13.71;46.68
76216;BME280;65010;50.190;18.930;2024-02-21T09:32:39;98714.84;;;13.88;45.35
76216;BME280;65010;50.190;18.930;2024-02-21T09:35:45;98715.47;;;13.91;45.08
76216;BME280;65010;50.190;18.930;2024-02-21T09:38:53;98711.44;;;13.95;45.45
76216;BME280;65010;50.190;18.930;2024-02-21T09:42:06;98712.97;;;14.04;44.88
76216;BME280;65010;50.190;18.930;2024-02-21T09:45:18;98715.22;;;14.07;44.70
76216;BME280;65010;50.190;18.930;2024-02-21T09:48:44;98715.81;;;14.02;43.61
76216;BME280;65010;50.190;18.930;2024-02-21T09:52:05;98726.81;;;13.70;43.40
76216;BME280;65010;50.190;18.930;2024-02-21T09:55:13;98719.25;;;13.52;44.24
76216;BME280;65010;50.190;18.930;2024-02-21T09:58:26;98716.97;;;13.34;45.00
76216;BME280;65010;50.190;18.930;2024-02-21T10:01:32;98718.13;;;13.31;45.46
76216;BME280;65010;50.190;18.930;2024-02-21T10:04:39;98719.78;;;13.17;44.49
76216;BME280;65010;50.190;18.930;2024-02-21T10:07:47;98718.16;;;13.16;45.14
76216;BME280;65010;50.190;18.930;2024-02-21T10:10:55;98712.94;;;13.23;45.60
76216;BME280;65010;50.190;18.930;2024-02-21T10:14:05;98715.50;;;13.16;44.79
76216;BME280;65010;50.190;18.930;2024-02-21T10:17:16;98712.03;;;13.01;44.72
76216;BME280;65010;50.190;18.930;2024-02-21T10:20:23;98709.38;;;13.01;45.52
76216;BME280;65010;50.190;18.930;2024-02-21T10:23:29;98705.94;;;12.85;45.25
76216;BME280;65010;50.190;18.930;2024-02-21T10:26:45;98705.06;;;12.70;45.22
76216;BME280;65010;50.190;18.930;2024-02-21T10:29:56;98704.66;;;12.58;45.28
76216;BME280;65010;50.190;18.930;2024-02-21T10:33:02;98713.84;;;12.47;46.09
76216;BME280;65010;50.190;18.930;2024-02-21T10:36:09;98704.91;;;12.48;45.26
76216;BME280;65010;50.190;18.930;2024-02-21T10:39:16;98689.66;;;12.59;46.17
76216;BME280;65010;50.190;18.930;2024-02-21T10:42:22;98686.06;;;12.75;45.42
76216;BME280;65010;50.190;18.930;2024-02-21T10:45:37;98674.34;;;13.07;45.85
76216;BME280;65010;50.190;18.930;2024-02-21T10:48:45;98677.28;;;13.42;44.63
76216;BME280;65010;50.190;18.930;2024-02-21T10:52:02;98679.53;;;13.60;43.07
76216;BME280;65010;50.190;18.930;2024-02-21T10:55:21;98679.34;;;13.76;42.03
76216;BME280;65010;50.190;18.930;2024-02-21T10:58:39;98667.69;;;13.71;41.99
76216;BME280;65010;50.190;18.930;2024-02-21T11:01:50;98666.31;;;13.60;42.05
76216;BME280;65010;50.190;18.930;2024-02-21T11:05:03;98667.44;;;13.36;42.35
76216;BME280;65010;50.190;18.930;2024-02-21T11:08:12;98663.19;;;13.20;43.03
76216;BME280;65010;50.190;18.930;2024-02-21T11:11:24;98656.97;;;13.13;42.81
76216;BME280;65010;50.190;18.930;2024-02-21T11:14:41;98660.63;;;12.97;42.72
76216;BME280;65010;50.190;18.930;2024-02-21T11:17:56;98642.25;;;12.88;43.41
76216;BME280;65010;50.190;18.930;2024-02-21T11:21:04;98639.78;;;12.72;43.38
76216;BME280;65010;50.190;18.930;2024-02-21T11:24:11;98636.66;;;12.54;44.00
76216;BME280;65010;50.190;18.930;2024-02-21T11:27:20;98641.59;;;12.34;44.18
76216;BME280;65010;50.190;18.930;2024-02-21T11:30:29;98634.47;;;12.19;44.67
76216;BME280;65010;50.190;18.930;2024-02-21T11:33:39;98628.44;;;12.11;45.13
76216;BME280;65010;50.190;18.930;2024-02-21T11:36:48;98629.44;;;12.09;45.25
76216;BME280;65010;50.190;18.930;2024-02-21T11:39:56;98626.84;;;12.01;45.07
76216;BME280;65010;50.190;18.930;2024-02-21T11:43:03;98625.47;;;11.91;45.63
76216;BME280;65010;50.190;18.930;2024-02-21T11:46:10;98626.91;;;11.93;46.04
76216;BME280;65010;50.190;18.930;2024-02-21T11:49:18;98621.22;;;11.81;46.42
76216;BME280;65010;50.190;18.930;2024-02-21T11:52:26;98622.00;;;11.67;46.60
76216;BME280;65010;50.190;18.930;2024-02-21T11:55:33;98618.41;;;11.60;46.54
76216;BME280;65010;50.190;18.930;2024-02-21T11:58:40;98620.97;;;11.45;47.00
76216;BME280;65010;50.190;18.930;2024-02-21T12:01:46;98615.25;;;11.33;47.56
76216;BME280;65010;50.190;18.930;2024-02-21T12:04:57;98600.25;;;11.02;48.20
76216;BME280;65010;50.190;18.930;2024-02-21T12:08:04;98616.03;;;10.94;48.67
76216;BME280;65010;50.190;18.930;2024-02-21T12:11:21;98621.16;;;10.79;49.48
76216;BME280;65010;50.190;18.930;2024-02-21T12:14:29;98613.47;;;10.69;51.37
76216;BME280;65010;50.190;18.930;2024-02-21T12:17:37;98613.84;;;10.58;50.97
76216;BME280;65010;50.190;18.930;2024-02-21T12:20:48;98601.69;;;10.49;51.38
76216;BME280;65010;50.190;18.930;2024-02-21T12:23:55;98602.50;;;10.49;51.97
76216;BME280;65010;50.190;18.930;2024-02-21T12:27:01;98600.06;;;10.48;52.46
76216;BME280;65010;50.190;18.930;2024-02-21T12:30:09;98604.31;;;10.41;53.53
76216;BME280;65010;50.190;18.930;2024-02-21T12:33:16;98603.53;;;10.32;56.18
76216;BME280;65010;50.190;18.930;2024-02-21T12:36:25;98600.41;;;10.28;55.54
76216;BME280;65010;50.190;18.930;2024-02-21T12:39:31;98597.28;;;10.17;55.19
76216;BME280;65010;50.190;18.930;2024-02-21T12:42:38;98589.75;;;10.05;55.55
76216;BME280;65010;50.190;18.930;2024-02-21T12:45:44;98591.03;;;9.93;56.39
76216;BME280;65010;50.190;18.930;2024-02-21T12:48:51;98586.44;;;9.87;56.82
76216;BME280;65010;50.190;18.930;2024-02-21T12:52:00;98593.78;;;9.67;57.65
76216;BME280;65010;50.190;18.930;2024-02-21T12:55:07;98591.13;;;9.59;57.51
76216;BME280;65010;50.190;18.930;2024-02-21T12:58:15;98589.28;;;9.43;57.61
76216;BME280;65010;50.190;18.930;2024-02-21T13:01:22;98583.69;;;9.29;58.27
76216;BME280;65010;50.190;18.930;2024-02-21T13:04:28;98584.66;;;9.28;58.73
76216;BME280;65010;50.190;18.930;2024-02-21T13:07:37;98572.19;;;9.22;58.49
76216;BME280;65010;50.190;18.930;2024-02-21T13:10:43;98563.66;;;9.20;58.77
76216;BME280;65010;50.190;18.930;2024-02-21T13:13:53;98565.84;;;9.25;58.63
76216;BME280;65010;50.190;18.930;2024-02-21T13:17:00;98547.13;;;9.20;58.91
76216;BME280;65010;50.190;18.930;2024-02-21T13:20:08;98552.22;;;9.21;59.27
76216;BME280;65010;50.190;18.930;2024-02-21T13:23:18;98545.34;;;9.37;59.27
76216;BME280;65010;50.190;18.930;2024-02-21T13:26:25;98538.63;;;9.34;58.74
76216;BME280;65010;50.190;18.930;2024-02-21T13:29:30;98545.34;;;9.37;58.72
76216;BME280;65010;50.190;18.930;2024-02-21T13:32:37;98543.22;;;9.40;58.43
76216;BME280;65010;50.190;18.930;2024-02-21T13:35:43;98541.59;;;9.39;58.06
76216;BME280;65010;50.190;18.930;2024-02-21T13:38:52;98527.31;;;9.42;58.40
76216;BME280;65010;50.190;18.930;2024-02-21T13:41:58;98521.59;;;9.46;58.21
76216;BME280;65010;50.190;18.930;2024-02-21T13:45:06;98528.50;;;9.47;58.04
76216;BME280;65010;50.190;18.930;2024-02-21T13:48:13;98527.19;;;9.43;58.29
76216;BME280;65010;50.190;18.930;2024-02-21T13:51:20;98522.72;;;9.36;58.51
76216;BME280;65010;50.190;18.930;2024-02-21T13:54:29;98520.44;;;9.41;58.89
76216;BME280;65010;50.190;18.930;2024-02-21T13:57:36;98526.66;;;9.40;58.66
76216;BME280;65010;50.190;18.930;2024-02-21T14:00:42;98523.69;;;9.26;58.25
76216;BME280;65010;50.190;18.930;2024-02-21T14:03:49;98514.63;;;9.13;58.64
76216;BME280;65010;50.190;18.930;2024-02-21T14:06:56;98504.78;;;9.06;59.15
76216;BME280;65010;50.190;18.930;2024-02-21T14:10:07;98511.53;;;9.09;59.08
76216;BME280;65010;50.190;18.930;2024-02-21T14:13:15;98499.09;;;9.11;59.37
76216;BME280;65010;50.190;18.930;2024-02-21T14:16:23;98492.19;;;9.18;59.34
76216;BME280;65010;50.190;18.930;2024-02-21T14:19:30;98488.63;;;9.19;59.85
76216;BME280;65010;50.190;18.930;2024-02-21T14:22:36;98480.09;;;9.25;59.48
76216;BME280;65010;50.190;18.930;2024-02-21T14:25:45;98476.47;;;9.26;59.65
76216;BME280;65010;50.190;18.930;2024-02-21T14:28:53;98470.78;;;9.31;59.59
76216;BME280;65010;50.190;18.930;2024-02-21T14:31:59;98483.69;;;9.33;59.04
76216;BME280;65010;50.190;18.930;2024-02-21T14:35:06;98468.31;;;9.29;58.98
76216;BME280;65010;50.190;18.930;2024-02-21T14:38:12;98462.25;;;9.29;58.66
76216;BME280;65010;50.190;18.930;2024-02-21T14:41:22;98454.53;;;9.19;58.29
76216;BME280;65010;50.190;18.930;2024-02-21T14:44:27;98441.22;;;9.13;58.84
76216;BME280;65010;50.190;18.930;2024-02-21T14:47:34;98428.59;;;9.08;58.63
76216;BME280;65010;50.190;18.930;2024-02-21T14:50:40;98430.72;;;9.13;58.60
76216;BME280;65010;50.190;18.930;2024-02-21T14:53:47;98425.34;;;9.30;58.63
76216;BME280;65010;50.190;18.930;2024-02-21T14:56:55;98439.44;;;9.46;57.71
76216;BME280;65010;50.190;18.930;2024-02-21T15:00:03;98432.72;;;9.52;56.96
76216;BME280;65010;50.190;18.930;2024-02-21T15:03:11;98437.81;;;9.53;56.85
76216;BME280;65010;50.190;18.930;2024-02-21T15:06:18;98433.03;;;9.48;56.31
76216;BME280;65010;50.190;18.930;2024-02-21T15:09:24;98437.63;;;9.46;56.54
76216;BME280;65010;50.190;18.930;2024-02-21T15:12:33;98436.47;;;9.41;56.14
76216;BME280;65010;50.190;18.930;2024-02-21T15:15:39;98447.81;;;9.33;56.36
76216;BME280;65010;50.190;18.930;2024-02-21T15:18:46;98446.16;;;9.24;56.83
76216;BME280;65010;50.190;18.930;2024-02-21T15:21:51;98441.41;;;9.19;56.71
76216;BME280;65010;50.190;18.930;2024-02-21T15:24:58;98427.16;;;9.14;56.60
76216;BME280;65010;50.190;18.930;2024-02-21T15:28:09;98426.31;;;9.13;57.20
76216;BME280;65010;50.190;18.930;2024-02-21T15:31:22;98424.84;;;9.19;56.77
76216;BME280;65010;50.190;18.930;2024-02-21T15:34:28;98418.47;;;9.21;56.94
76216;BME280;65010;50.190;18.930;2024-02-21T15:37:36;98407.31;;;9.19;56.54
76216;BME280;65010;50.190;18.930;2024-02-21T15:40:42;98404.53;;;9.21;56.85
76216;BME280;65010;50.190;18.930;2024-02-21T15:43:51;98387.97;;;9.20;56.86
76216;BME280;65010;50.190;18.930;2024-02-21T15:46:59;98393.22;;;9.12;56.88
76216;BME280;65010;50.190;18.930;2024-02-21T15:50:07;98397.16;;;9.08;57.05
76216;BME280;65010;50.190;18.930;2024-02-21T15:53:13;98391.75;;;9.09;57.13
76216;BME280;65010;50.190;18.930;2024-02-21T15:56:20;98391.25;;;9.06;57.05
76216;BME280;65010;50.190;18.930;2024-02-21T15:59:28;98397.28;;;9.06;57.12
76216;BME280;65010;50.190;18.930;2024-02-21T16:02:35;98401.06;;;8.96;56.94
76216;BME280;65010;50.190;18.930;2024-02-21T16:05:41;98408.91;;;8.87;57.54
76216;BME280;65010;50.190;18.930;2024-02-21T16:08:48;98404.97;;;8.83;57.59
76216;BME280;65010;50.190;18.930;2024-02-21T16:11:55;98401.06;;;8.87;57.63
76216;BME280;65010;50.190;18.930;2024-02-21T16:15:05;98399.75;;;8.83;57.53
76216;BME280;65010;50.190;18.930;2024-02-21T16:18:13;98394.97;;;8.71;57.65
76216;BME280;65010;50.190;18.930;2024-02-21T16:21:23;98388.72;;;8.63;57.76
76216;BME280;65010;50.190;18.930;2024-02-21T16:24:32;98391.34;;;8.63;57.93
76216;BME280;65010;50.190;18.930;2024-02-21T16:27:39;98377.41;;;8.55;57.77
76216;BME280;65010;50.190;18.930;2024-02-21T16:30:47;98376.09;;;8.51;57.86